Imlaystown, New Jersey
Current Conditions -  °F | °C
As of 6:58 AM on Monday 20 Oct 2014 (Local Time) from KWRI Reporting Station
Clear Clear  
Wind Chill: 32°   Ceiling: Unl
Heat Index: 32°   Visibility: 10mi
Dew Point: 29°   Wind: 3mph
Humidity: 87%   Direction: 180°S
Pressure: 30.11"   Gusts: NA
Location:  40.17°N, 74.51°W
Report Text: KWRI 201058Z AUTO 18003KT 10SM CLR 00/M02 A3011 RMK AO2 SLP201 T00011018
Loading
Personal Weather Stations






























Interactive Weather Map
Tropical Storm Tracking
New forecast layout! Learn more

10-Day Weather Forecast

Advertisements
Track Severe Weather on mobile